Wednesday, October 1, 2014, 10:20 PM EDT

KPHF, Williamsburg International Airport

Location: Newport News, VA, United States Lat: 37.133
Local Time: 10:20 PM EDT ( 2:20 GMT) Lon: -76.5
Time Zone: US/Eastern Elev: 42 ft

Show me the last for .
Show Decoded

2014-10-01 21:54 METAR KPHF 020154Z 00000KT 9SM FEW060 19/16 A3004 RMK AO2 SLP171 T01890161 =
2014-10-01 20:54 METAR KPHF 020054Z 06003KT 10SM FEW110 20/17 A3003 RMK AO2 SLP169 T02000172 =
2014-10-01 19:54 METAR KPHF 012354Z 05005KT 10SM FEW050 BKN110 21/17 A3002 RMK AO2 RAB2258E06
                 SLP164 P0000 60000 T02060167 10261 20206 53010 =
2014-10-01 18:54 METAR KPHF 012254Z 07005KT 10SM SCT110 22/17 A3001 RMK AO2 SLP160 T02170172 =
2014-10-01 17:54 METAR KPHF 012154Z 09006KT 10SM SCT100 24/18 A2999 RMK AO2 SLP156 T02390178 =
2014-10-01 16:54 METAR KPHF 012054Z 07008KT 10SM CLR 25/17 A2999 RMK AO2 SLP154 T02500167 55001 =
2014-10-01 15:54 METAR KPHF 011954Z 05007KT 10SM FEW060 26/17 A2999 RMK AO2 SLP153 T02560167 =
2014-10-01 14:54 METAR KPHF 011854Z 04006KT 10SM FEW042 FEW055 25/17 A2999 RMK AO2 SLP154
                 T02500167 $ =
2014-10-01 13:54 METAR KPHF 011754Z 06006KT 10SM CLR 26/17 A2999 RMK AO2 SLP155 T02560172 10267
                 20211 58006 =
2014-10-01 13:17 METAR KPHF 011717Z 06008KT 10SM SCT023 BKN028 BKN034 25/18 A3000 RMK AO2
                 T02500178 =
2014-10-01 12:54 METAR KPHF 011654Z VRB06KT 10SM SCT025 SCT030 26/18 A3001 RMK AO2 SLP160
                 T02610178 =
2014-10-01 11:54 METAR KPHF 011554Z 02006KT 10SM SCT026 25/17 A3001 RMK AO2 SLP161 T02500167 =
2014-10-01 10:54 METAR KPHF 011454Z 05007KT 10SM CLR 25/17 A3001 RMK AO2 SLP161 T02500167 51013 =
2014-10-01 09:54 METAR KPHF 011354Z 03005KT 10SM FEW014 23/18 A3000 RMK AO2 SLP158 T02330183 =
2014-10-01 08:54 METAR KPHF 011254Z 01004KT 8SM CLR 21/19 A2998 RMK AO2 SLP152 T02110189 =
2014-10-01 07:54 METAR KPHF 011154Z 01004KT 5SM BR CLR 19/17 A2997 RMK AO2 SLP148 60000 T01890167
                 10189 20172 53012 =
2014-10-01 07:28 METAR KPHF 011128Z 00000KT 5SM BR CLR 18/16 A2996 RMK AO2 T01780156 =
2014-10-01 06:54 METAR KPHF 011054Z 00000KT 1/4SM FG VV002 18/16 A2995 =
2014-10-01 05:54 METAR KPHF 010954Z 00000KT 1/4SM FG VV002 18/16 A2994 RMK AO2 SLP136 T01830161 $
                 =
2014-10-01 05:50 METAR KPHF 010950Z 00000KT 1/4SM FG VV002 18/16 A2994 RMK AO2 $ =
2014-10-01 05:38 METAR KPHF 010938Z 00000KT 1SM BR VV002 18/16 A2993 RMK AO2 T01830161 $ =
2014-10-01 05:27 METAR KPHF 010927Z 35003KT 1 3/4SM BR CLR 18/16 A2993 RMK AO2 VIS 1V2 1/2
                 T01780156 $ =
2014-10-01 04:59 METAR KPHF 010859Z 32003KT 3SM BR FEW007 17/15 A2993 =
2014-10-01 04:54 METAR KPHF 010854Z 33003KT 1 3/4SM BR FEW007 18/16 A2993 RMK AO2 SLP134
                 T01780156 55000 =
2014-10-01 04:51 METAR KPHF 010851Z 34003KT 1 3/4SM BR FEW007 17/16 A2993 RMK AO2 =
2014-10-01 04:46 METAR KPHF 010846Z 35003KT 3SM BR FEW007 18/16 A2993 RMK AO2 T01780156 =
2014-10-01 04:28 METAR KPHF 010828Z 00000KT 1 1/4SM BR FEW003 18/16 A2992 RMK AO2 VIS 1/2V5
                 T01830161 =
2014-10-01 04:15 METAR KPHF 010815Z 00000KT 2 1/2SM BR SCT003 18/16 A2992 RMK AO2 T01780156 =
2014-10-01 04:13 METAR KPHF 010813Z 00000KT 1SM BR VV003 18/16 A2991 RMK AO2 T01780156 =
2014-10-01 04:02 METAR KPHF 010802Z 00000KT 1/4SM FG VV003 18/16 A2991 =
2014-10-01 03:54 METAR KPHF 010754Z 00000KT 1/2SM FG VV003 18/17 A2991 RMK AO2 SLP128 T01830167 =
2014-10-01 03:41 METAR KPHF 010741Z 00000KT 1/2SM FG CLR 18/16 A2991 RMK AO2 T01830161 =
2014-10-01 03:32 METAR KPHF 010732Z 00000KT 3/4SM HZ VV003 19/16 A2992 RMK AO2 T01890161 =
2014-10-01 03:10 METAR KPHF 010710Z 00000KT 1/2SM FG VV003 18/16 A2992 RMK AO2 T01830161 =
2014-10-01 02:57 METAR KPHF 010657Z 00000KT 1 1/4SM BR FEW003 19/17 A2992 RMK AO2 T01890167 =
2014-10-01 02:54 METAR KPHF 010654Z 00000KT 3/4SM BR VV003 18/16 A2992 RMK AO2 SLP131 T01830161 =
2014-10-01 02:49 METAR KPHF 010649Z 00000KT 3/4SM BR VV003 18/16 A2992 RMK AO2 =
2014-10-01 02:47 METAR KPHF 010647Z 00000KT 1 1/2SM BR FEW003 18/16 A2992 RMK AO2 T01830161 =
2014-10-01 02:42 METAR KPHF 010642Z 00000KT 3SM BR CLR 17/15 A2993 RMK AO2 T01720150 =
2014-10-01 02:38 METAR KPHF 010638Z 00000KT 1 3/4SM BR CLR 17/16 A2993 RMK AO2 T01720156 =
2014-10-01 02:31 METAR KPHF 010631Z 01003KT 2SM BR CLR 18/16 A2993 RMK AO2 T01830161 =
2014-10-01 02:20 METAR KPHF 010620Z 02004KT 3SM BR CLR 19/17 A2993 RMK AO2 T01890167 =
2014-10-01 02:05 METAR KPHF 010605Z 01003KT 1 3/4SM BR CLR 18/16 A2993 RMK AO2 T01830161 =
2014-10-01 01:54 METAR KPHF 010554Z 02003KT 4SM BR CLR 18/16 A2993 RMK AO2 SLP134 T01830161 10206
                 20172 51004 =
2014-10-01 01:15 METAR KPHF 010515Z 05003KT 6SM HZ CLR 18/15 A2992 RMK AO2 T01780150 =
2014-10-01 00:54 METAR KPHF 010454Z 02003KT 2 1/2SM BR CLR 18/16 A2993 RMK AO2 SLP133 T01780156
                 402720167 =
2014-10-01 00:20 METAR KPHF 010420Z 00000KT 5SM BR FEW015 17/16 A2993 RMK AO2 T01720156 =
2014-10-01 00:12 METAR KPHF 010412Z 00000KT 2 1/2SM BR FEW015 18/16 A2993 RMK AO2 T01780156 =
2014-10-01 00:01 METAR KPHF 010401Z 00000KT 4SM BR CLR 18/16 A2993 RMK AO2 T01830161 =
2014-09-30 23:54 METAR KPHF 010354Z 00000KT 2 1/2SM HZ CLR 18/16 A2992 RMK AO2 SLP132 T01830156 =
2014-09-30 23:37 METAR KPHF 010337Z 00000KT 3SM BR CLR 18/16 A2992 RMK AO2 T01830161 =
2014-09-30 23:30 METAR KPHF 010330Z 36003KT 1 1/2SM BR CLR 18/16 A2993 RMK AO2 T01780156 =
2014-09-30 22:54 METAR KPHF 010254Z 00000KT 7SM CLR 18/16 A2992 =

Support USWX by starting your Amazon purchase here.